sensor_id;sensor_type;location;lat;lon;timestamp;temperature;humidity
60027;DHT22;45891;53.006;6.512;2022-09-01T00:01:11;14.50;99.90
60027;DHT22;45891;53.006;6.512;2022-09-01T00:03:43;14.50;99.90
60027;DHT22;45891;53.006;6.512;2022-09-01T00:06:16;14.50;99.90
60027;DHT22;45891;53.006;6.512;2022-09-01T00:08:55;14.50;99.90
60027;DHT22;45891;53.006;6.512;2022-09-01T00:11:23;14.50;99.90
60027;DHT22;45891;53.006;6.512;2022-09-01T00:13:52;14.40;99.90
60027;DHT22;45891;53.006;6.512;2022-09-01T00:16:19;14.40;99.90
60027;DHT22;45891;53.006;6.512;2022-09-01T00:18:49;14.40;99.90
60027;DHT22;45891;53.006;6.512;2022-09-01T00:21:18;14.40;99.90
60027;DHT22;45891;53.006;6.512;2022-09-01T00:23:45;14.30;99.90
60027;DHT22;45891;53.006;6.512;2022-09-01T00:26:11;14.30;99.90
60027;DHT22;45891;53.006;6.512;2022-09-01T00:28:38;14.30;99.90
60027;DHT22;45891;53.006;6.512;2022-09-01T00:31:05;14.30;99.90
60027;DHT22;45891;53.006;6.512;2022-09-01T00:33:34;14.30;99.90
60027;DHT22;45891;53.006;6.512;2022-09-01T00:36:01;14.20;99.90
60027;DHT22;45891;53.006;6.512;2022-09-01T00:38:27;14.20;99.90
60027;DHT22;45891;53.006;6.512;2022-09-01T00:40:54;14.20;99.90
60027;DHT22;45891;53.006;6.512;2022-09-01T00:46:21;14.20;99.90
60027;DHT22;45891;53.006;6.512;2022-09-01T00:48:58;14.10;99.90
60027;DHT22;45891;53.006;6.512;2022-09-01T00:51:27;14.10;99.90
60027;DHT22;45891;53.006;6.512;2022-09-01T00:53:53;14.10;99.90
60027;DHT22;45891;53.006;6.512;2022-09-01T00:56:21;14.10;99.90
60027;DHT22;45891;53.006;6.512;2022-09-01T00:58:49;14.10;99.90
60027;DHT22;45891;53.006;6.512;2022-09-01T01:01:16;14.00;99.90
60027;DHT22;45891;53.006;6.512;2022-09-01T01:03:42;14.00;99.90
60027;DHT22;45891;53.006;6.512;2022-09-01T01:06:13;14.00;99.90
60027;DHT22;45891;53.006;6.512;2022-09-01T01:08:46;14.00;99.90
60027;DHT22;45891;53.006;6.512;2022-09-01T01:11:26;14.00;99.90
60027;DHT22;45891;53.006;6.512;2022-09-01T01:13:56;13.90;99.90
60027;DHT22;45891;53.006;6.512;2022-09-01T01:16:26;13.90;99.90
60027;DHT22;45891;53.006;6.512;2022-09-01T01:18:53;13.90;99.90
60027;DHT22;45891;53.006;6.512;2022-09-01T01:21:28;13.80;99.90
60027;DHT22;45891;53.006;6.512;2022-09-01T01:24:23;13.80;99.90
60027;DHT22;45891;53.006;6.512;2022-09-01T01:26:50;13.80;99.90
60027;DHT22;45891;53.006;6.512;2022-09-01T01:29:17;13.80;99.90
60027;DHT22;45891;53.006;6.512;2022-09-01T01:31:44;13.80;99.90
60027;DHT22;45891;53.006;6.512;2022-09-01T01:34:12;13.70;99.90
60027;DHT22;45891;53.006;6.512;2022-09-01T01:36:39;13.70;99.90
60027;DHT22;45891;53.006;6.512;2022-09-01T01:39:18;13.70;99.90
60027;DHT22;45891;53.006;6.512;2022-09-01T01:41:45;13.70;99.90
60027;DHT22;45891;53.006;6.512;2022-09-01T01:44:20;13.60;99.90
60027;DHT22;45891;53.006;6.512;2022-09-01T01:46:52;13.60;99.90
60027;DHT22;45891;53.006;6.512;2022-09-01T01:49:21;13.60;99.90
60027;DHT22;45891;53.006;6.512;2022-09-01T01:51:50;13.50;99.90
60027;DHT22;45891;53.006;6.512;2022-09-01T01:54:18;13.50;99.90
60027;DHT22;45891;53.006;6.512;2022-09-01T01:56:44;13.50;99.90
60027;DHT22;45891;53.006;6.512;2022-09-01T01:59:11;13.50;99.90
60027;DHT22;45891;53.006;6.512;2022-09-01T02:01:40;13.50;99.90
60027;DHT22;45891;53.006;6.512;2022-09-01T02:04:09;13.50;99.90
60027;DHT22;45891;53.006;6.512;2022-09-01T02:06:37;13.50;99.90
60027;DHT22;45891;53.006;6.512;2022-09-01T02:09:07;13.40;99.90
60027;DHT22;45891;53.006;6.512;2022-09-01T02:11:33;13.40;99.90
60027;DHT22;45891;53.006;6.512;2022-09-01T02:14:05;13.40;99.90
60027;DHT22;45891;53.006;6.512;2022-09-01T02:16:33;13.40;99.90
60027;DHT22;45891;53.006;6.512;2022-09-01T02:19:01;13.30;99.90
60027;DHT22;45891;53.006;6.512;2022-09-01T02:21:27;13.30;99.90
60027;DHT22;45891;53.006;6.512;2022-09-01T02:23:59;13.30;99.90
60027;DHT22;45891;53.006;6.512;2022-09-01T02:26:29;13.30;99.90
60027;DHT22;45891;53.006;6.512;2022-09-01T02:29:01;13.20;99.90
60027;DHT22;45891;53.006;6.512;2022-09-01T02:31:34;13.20;99.90
60027;DHT22;45891;53.006;6.512;2022-09-01T02:34:01;13.20;99.90
60027;DHT22;45891;53.006;6.512;2022-09-01T02:36:28;13.20;99.90
60027;DHT22;45891;53.006;6.512;2022-09-01T02:38:57;13.20;99.90
60027;DHT22;45891;53.006;6.512;2022-09-01T02:41:23;13.10;99.90
60027;DHT22;45891;53.006;6.512;2022-09-01T02:43:53;13.10;99.90
60027;DHT22;45891;53.006;6.512;2022-09-01T02:46:20;13.10;99.90
60027;DHT22;45891;53.006;6.512;2022-09-01T02:48:48;13.10;99.90
60027;DHT22;45891;53.006;6.512;2022-09-01T02:51:18;13.10;99.90
60027;DHT22;45891;53.006;6.512;2022-09-01T02:53:45;13.10;99.90
60027;DHT22;45891;53.006;6.512;2022-09-01T02:56:20;13.10;99.90
60027;DHT22;45891;53.006;6.512;2022-09-01T02:58:48;13.10;99.90
60027;DHT22;45891;53.006;6.512;2022-09-01T03:01:23;13.10;99.90
60027;DHT22;45891;53.006;6.512;2022-09-01T03:03:53;13.10;99.90
60027;DHT22;45891;53.006;6.512;2022-09-01T03:06:21;13.10;99.90
60027;DHT22;45891;53.006;6.512;2022-09-01T03:08:51;13.10;99.90
60027;DHT22;45891;53.006;6.512;2022-09-01T03:11:17;13.10;99.90
60027;DHT22;45891;53.006;6.512;2022-09-01T03:13:44;13.10;99.90
60027;DHT22;45891;53.006;6.512;2022-09-01T03:16:10;13.10;99.90
60027;DHT22;45891;53.006;6.512;2022-09-01T03:18:37;13.10;99.90
60027;DHT22;45891;53.006;6.512;2022-09-01T03:21:04;13.10;99.90
60027;DHT22;45891;53.006;6.512;2022-09-01T03:23:31;13.10;99.90
60027;DHT22;45891;53.006;6.512;2022-09-01T03:25:59;13.20;99.90
60027;DHT22;45891;53.006;6.512;2022-09-01T03:28:26;13.20;99.90
60027;DHT22;45891;53.006;6.512;2022-09-01T03:30:55;13.20;99.90
60027;DHT22;45891;53.006;6.512;2022-09-01T03:33:23;13.20;99.90
60027;DHT22;45891;53.006;6.512;2022-09-01T03:35:50;13.20;99.90
60027;DHT22;45891;53.006;6.512;2022-09-01T03:38:17;13.20;99.90
60027;DHT22;45891;53.006;6.512;2022-09-01T03:41:00;13.10;99.90
60027;DHT22;45891;53.006;6.512;2022-09-01T03:43:28;13.10;99.90
60027;DHT22;45891;53.006;6.512;2022-09-01T03:45:55;13.10;99.90
60027;DHT22;45891;53.006;6.512;2022-09-01T03:48:27;13.10;99.90
60027;DHT22;45891;53.006;6.512;2022-09-01T03:50:55;13.00;99.90
60027;DHT22;45891;53.006;6.512;2022-09-01T03:53:27;13.00;99.90
60027;DHT22;45891;53.006;6.512;2022-09-01T03:55:53;12.90;99.90
60027;DHT22;45891;53.006;6.512;2022-09-01T03:58:20;13.00;99.90
60027;DHT22;45891;53.006;6.512;2022-09-01T04:00:50;12.90;99.90
60027;DHT22;45891;53.006;6.512;2022-09-01T04:03:22;12.90;99.90
60027;DHT22;45891;53.006;6.512;2022-09-01T04:05:49;12.90;99.90
60027;DHT22;45891;53.006;6.512;2022-09-01T04:08:18;12.90;99.90
60027;DHT22;45891;53.006;6.512;2022-09-01T04:10:49;12.80;99.90
60027;DHT22;45891;53.006;6.512;2022-09-01T04:13:25;12.80;99.90
60027;DHT22;45891;53.006;6.512;2022-09-01T04:15:52;12.80;99.90
60027;DHT22;45891;53.006;6.512;2022-09-01T04:18:19;12.80;99.90
60027;DHT22;45891;53.006;6.512;2022-09-01T04:20:51;12.80;99.90
60027;DHT22;45891;53.006;6.512;2022-09-01T04:25:49;12.80;99.90
60027;DHT22;45891;53.006;6.512;2022-09-01T04:28:17;12.70;99.90
60027;DHT22;45891;53.006;6.512;2022-09-01T04:30:52;12.70;99.90
60027;DHT22;45891;53.006;6.512;2022-09-01T04:33:22;12.70;99.90
60027;DHT22;45891;53.006;6.512;2022-09-01T04:35:49;12.70;99.90
60027;DHT22;45891;53.006;6.512;2022-09-01T04:38:17;12.70;99.90
60027;DHT22;45891;53.006;6.512;2022-09-01T04:40:43;12.70;99.90
60027;DHT22;45891;53.006;6.512;2022-09-01T04:43:09;12.80;99.90
60027;DHT22;45891;53.006;6.512;2022-09-01T04:45:36;12.70;99.90
60027;DHT22;45891;53.006;6.512;2022-09-01T04:48:04;12.70;99.90
60027;DHT22;45891;53.006;6.512;2022-09-01T04:50:31;12.70;99.90
60027;DHT22;45891;53.006;6.512;2022-09-01T04:52:58;12.80;99.90
60027;DHT22;45891;53.006;6.512;2022-09-01T04:55:28;12.70;99.90
60027;DHT22;45891;53.006;6.512;2022-09-01T04:57:57;12.80;99.90
60027;DHT22;45891;53.006;6.512;2022-09-01T05:00:25;12.80;99.90
60027;DHT22;45891;53.006;6.512;2022-09-01T05:03:01;12.80;99.90
60027;DHT22;45891;53.006;6.512;2022-09-01T05:05:40;12.80;99.90
60027;DHT22;45891;53.006;6.512;2022-09-01T05:08:14;12.80;99.90
60027;DHT22;45891;53.006;6.512;2022-09-01T05:10:46;12.80;99.90
60027;DHT22;45891;53.006;6.512;2022-09-01T05:13:15;12.90;99.90
60027;DHT22;45891;53.006;6.512;2022-09-01T05:15:44;12.90;99.90
60027;DHT22;45891;53.006;6.512;2022-09-01T05:18:18;12.90;99.90
60027;DHT22;45891;53.006;6.512;2022-09-01T05:20:50;12.90;99.90
60027;DHT22;45891;53.006;6.512;2022-09-01T05:23:18;12.90;99.90
60027;DHT22;45891;53.006;6.512;2022-09-01T05:25:47;12.90;99.90
60027;DHT22;45891;53.006;6.512;2022-09-01T05:28:18;12.90;99.90
60027;DHT22;45891;53.006;6.512;2022-09-01T05:30:46;12.90;99.90
60027;DHT22;45891;53.006;6.512;2022-09-01T05:33:13;12.90;99.90
60027;DHT22;45891;53.006;6.512;2022-09-01T05:35:48;13.00;99.90
60027;DHT22;45891;53.006;6.512;2022-09-01T05:38:17;12.90;99.90
60027;DHT22;45891;53.006;6.512;2022-09-01T05:40:43;13.00;99.90
60027;DHT22;45891;53.006;6.512;2022-09-01T05:43:11;13.00;99.90
60027;DHT22;45891;53.006;6.512;2022-09-01T05:45:39;13.00;99.90
60027;DHT22;45891;53.006;6.512;2022-09-01T05:48:11;13.10;99.90
60027;DHT22;45891;53.006;6.512;2022-09-01T05:50:39;13.10;99.90
60027;DHT22;45891;53.006;6.512;2022-09-01T05:53:10;13.10;99.90
60027;DHT22;45891;53.006;6.512;2022-09-01T05:55:45;13.10;99.90
60027;DHT22;45891;53.006;6.512;2022-09-01T05:58:14;13.20;99.90
60027;DHT22;45891;53.006;6.512;2022-09-01T06:00:43;13.20;99.90
60027;DHT22;45891;53.006;6.512;2022-09-01T06:03:10;13.30;99.90
60027;DHT22;45891;53.006;6.512;2022-09-01T06:05:37;13.30;99.90
60027;DHT22;45891;53.006;6.512;2022-09-01T06:08:04;13.40;99.90
60027;DHT22;45891;53.006;6.512;2022-09-01T06:10:31;13.40;99.90
60027;DHT22;45891;53.006;6.512;2022-09-01T06:12:58;13.50;99.90
60027;DHT22;45891;53.006;6.512;2022-09-01T06:15:29;13.60;99.90
60027;DHT22;45891;53.006;6.512;2022-09-01T06:17:57;13.60;99.90
60027;DHT22;45891;53.006;6.512;2022-09-01T06:20:25;13.70;99.90
60027;DHT22;45891;53.006;6.512;2022-09-01T06:22:52;13.80;99.90
60027;DHT22;45891;53.006;6.512;2022-09-01T06:25:19;13.90;99.90
60027;DHT22;45891;53.006;6.512;2022-09-01T06:27:46;13.90;99.90
60027;DHT22;45891;53.006;6.512;2022-09-01T06:30:15;14.30;99.90
60027;DHT22;45891;53.006;6.512;2022-09-01T06:32:45;14.40;99.90
60027;DHT22;45891;53.006;6.512;2022-09-01T06:35:13;14.60;99.90
60027;DHT22;45891;53.006;6.512;2022-09-01T06:37:41;14.70;99.90
60027;DHT22;45891;53.006;6.512;2022-09-01T06:40:11;14.90;99.90
60027;DHT22;45891;53.006;6.512;2022-09-01T06:42:44;15.00;99.90
60027;DHT22;45891;53.006;6.512;2022-09-01T06:45:14;15.50;99.90
60027;DHT22;45891;53.006;6.512;2022-09-01T06:47:43;16.10;99.90
60027;DHT22;45891;53.006;6.512;2022-09-01T06:50:12;16.70;99.90
60027;DHT22;45891;53.006;6.512;2022-09-01T06:52:42;17.20;99.90
60027;DHT22;45891;53.006;6.512;2022-09-01T06:55:10;17.70;99.90
60027;DHT22;45891;53.006;6.512;2022-09-01T06:57:39;18.10;99.90
60027;DHT22;45891;53.006;6.512;2022-09-01T07:00:08;18.20;99.90
60027;DHT22;45891;53.006;6.512;2022-09-01T07:02:47;18.60;99.90
60027;DHT22;45891;53.006;6.512;2022-09-01T07:05:18;19.00;99.90
60027;DHT22;45891;53.006;6.512;2022-09-01T07:07:53;19.30;99.90
60027;DHT22;45891;53.006;6.512;2022-09-01T07:10:21;19.60;99.90
60027;DHT22;45891;53.006;6.512;2022-09-01T07:12:53;19.90;99.90
60027;DHT22;45891;53.006;6.512;2022-09-01T07:15:21;20.20;99.90
60027;DHT22;45891;53.006;6.512;2022-09-01T07:17:53;20.50;99.90
60027;DHT22;45891;53.006;6.512;2022-09-01T07:20:22;20.80;99.90
60027;DHT22;45891;53.006;6.512;2022-09-01T07:22:50;20.90;99.70
60027;DHT22;45891;53.006;6.512;2022-09-01T07:25:17;21.10;99.30
60027;DHT22;45891;53.006;6.512;2022-09-01T07:27:45;21.40;99.00
60027;DHT22;45891;53.006;6.512;2022-09-01T07:30:16;21.70;98.60
60027;DHT22;45891;53.006;6.512;2022-09-01T07:32:44;21.90;98.40
60027;DHT22;45891;53.006;6.512;2022-09-01T07:35:12;22.00;97.80
60027;DHT22;45891;53.006;6.512;2022-09-01T07:37:38;22.30;97.50
60027;DHT22;45891;53.006;6.512;2022-09-01T07:40:06;22.50;97.00
60027;DHT22;45891;53.006;6.512;2022-09-01T07:42:33;22.60;96.60
60027;DHT22;45891;53.006;6.512;2022-09-01T07:44:59;22.80;96.30
60027;DHT22;45891;53.006;6.512;2022-09-01T07:47:25;23.00;95.80
60027;DHT22;45891;53.006;6.512;2022-09-01T07:49:54;23.00;95.30
60027;DHT22;45891;53.006;6.512;2022-09-01T07:52:21;23.00;95.00
60027;DHT22;45891;53.006;6.512;2022-09-01T07:54:47;23.20;94.80
60027;DHT22;45891;53.006;6.512;2022-09-01T07:57:13;23.30;94.60
60027;DHT22;45891;53.006;6.512;2022-09-01T07:59:40;23.60;94.50
60027;DHT22;45891;53.006;6.512;2022-09-01T08:02:07;23.90;94.40
60027;DHT22;45891;53.006;6.512;2022-09-01T08:04:35;24.20;93.70
60027;DHT22;45891;53.006;6.512;2022-09-01T08:07:04;24.50;93.40
60027;DHT22;45891;53.006;6.512;2022-09-01T08:09:30;24.70;93.00
60027;DHT22;45891;53.006;6.512;2022-09-01T08:11:57;24.80;92.40
60027;DHT22;45891;53.006;6.512;2022-09-01T08:14:23;24.90;91.90
60027;DHT22;45891;53.006;6.512;2022-09-01T08:16:49;25.10;91.60
60027;DHT22;45891;53.006;6.512;2022-09-01T08:19:15;25.20;91.70
60027;DHT22;45891;53.006;6.512;2022-09-01T08:21:43;25.40;90.90
60027;DHT22;45891;53.006;6.512;2022-09-01T08:24:09;25.70;90.90
60027;DHT22;45891;53.006;6.512;2022-09-01T08:26:35;26.10;90.40
60027;DHT22;45891;53.006;6.512;2022-09-01T08:29:02;26.20;89.60
60027;DHT22;45891;53.006;6.512;2022-09-01T08:31:28;26.30;88.00
60027;DHT22;45891;53.006;6.512;2022-09-01T08:33:54;26.60;88.80
60027;DHT22;45891;53.006;6.512;2022-09-01T08:36:21;26.90;86.90
60027;DHT22;45891;53.006;6.512;2022-09-01T08:38:47;27.10;85.50
60027;DHT22;45891;53.006;6.512;2022-09-01T08:41:25;27.30;85.00
60027;DHT22;45891;53.006;6.512;2022-09-01T08:46:48;28.00;80.20
60027;DHT22;45891;53.006;6.512;2022-09-01T08:49:21;28.00;81.00
60027;DHT22;45891;53.006;6.512;2022-09-01T08:54:56;28.30;78.70
60027;DHT22;45891;53.006;6.512;2022-09-01T08:57:40;28.40;77.60
60027;DHT22;45891;53.006;6.512;2022-09-01T09:00:09;28.60;75.90
60027;DHT22;45891;53.006;6.512;2022-09-01T09:07:56;28.90;75.40
60027;DHT22;45891;53.006;6.512;2022-09-01T09:10:29;29.10;73.50
60027;DHT22;45891;53.006;6.512;2022-09-01T09:13:21;29.20;72.50
60027;DHT22;45891;53.006;6.512;2022-09-01T09:18:47;29.60;71.70
60027;DHT22;45891;53.006;6.512;2022-09-01T09:21:22;29.80;70.20
60027;DHT22;45891;53.006;6.512;2022-09-01T09:24:01;30.00;68.70
60027;DHT22;45891;53.006;6.512;2022-09-01T09:26:31;29.90;68.20
60027;DHT22;45891;53.006;6.512;2022-09-01T09:28:57;29.80;67.40
60027;DHT22;45891;53.006;6.512;2022-09-01T09:31:27;30.00;67.20
60027;DHT22;45891;53.006;6.512;2022-09-01T09:33:55;30.20;66.30
60027;DHT22;45891;53.006;6.512;2022-09-01T09:36:42;30.30;66.10
60027;DHT22;45891;53.006;6.512;2022-09-01T09:39:13;30.50;63.90
60027;DHT22;45891;53.006;6.512;2022-09-01T09:41:42;30.60;64.80
60027;DHT22;45891;53.006;6.512;2022-09-01T09:44:25;30.70;64.20
60027;DHT22;45891;53.006;6.512;2022-09-01T09:46:54;30.90;62.90
60027;DHT22;45891;53.006;6.512;2022-09-01T09:49:24;31.00;62.80
60027;DHT22;45891;53.006;6.512;2022-09-01T09:54:40;31.40;60.80
60027;DHT22;45891;53.006;6.512;2022-09-01T09:57:11;31.40;60.70
60027;DHT22;45891;53.006;6.512;2022-09-01T10:00:05;31.50;60.20
60027;DHT22;45891;53.006;6.512;2022-09-01T10:02:36;31.80;59.00
60027;DHT22;45891;53.006;6.512;2022-09-01T10:05:41;32.00;58.80
60027;DHT22;45891;53.006;6.512;2022-09-01T10:08:35;31.80;55.50
60027;DHT22;45891;53.006;6.512;2022-09-01T10:11:05;31.50;56.80
60027;DHT22;45891;53.006;6.512;2022-09-01T10:13:33;31.70;57.00
60027;DHT22;45891;53.006;6.512;2022-09-01T10:16:06;31.90;57.10
60027;DHT22;45891;53.006;6.512;2022-09-01T10:18:39;32.30;56.20
60027;DHT22;45891;53.006;6.512;2022-09-01T10:21:23;32.20;53.40
60027;DHT22;45891;53.006;6.512;2022-09-01T10:23:52;32.00;52.90
60027;DHT22;45891;53.006;6.512;2022-09-01T10:26:43;32.00;53.50
60027;DHT22;45891;53.006;6.512;2022-09-01T10:29:19;31.90;52.30
60027;DHT22;45891;53.006;6.512;2022-09-01T10:31:46;32.00;52.00
60027;DHT22;45891;53.006;6.512;2022-09-01T10:34:17;32.30;52.00
60027;DHT22;45891;53.006;6.512;2022-09-01T10:36:45;32.70;51.10
60027;DHT22;45891;53.006;6.512;2022-09-01T10:39:15;32.90;50.50
60027;DHT22;45891;53.006;6.512;2022-09-01T10:44:20;32.70;50.70
60027;DHT22;45891;53.006;6.512;2022-09-01T10:46:46;32.80;50.40
60027;DHT22;45891;53.006;6.512;2022-09-01T10:51:55;33.20;48.20
60027;DHT22;45891;53.006;6.512;2022-09-01T10:59:34;33.80;48.30
60027;DHT22;45891;53.006;6.512;2022-09-01T11:07:03;34.50;46.40
60027;DHT22;45891;53.006;6.512;2022-09-01T11:12:10;34.50;44.70
60027;DHT22;45891;53.006;6.512;2022-09-01T11:14:53;34.60;44.70
60027;DHT22;45891;53.006;6.512;2022-09-01T11:17:26;34.70;44.30
60027;DHT22;45891;53.006;6.512;2022-09-01T11:25:08;34.90;44.50
60027;DHT22;45891;53.006;6.512;2022-09-01T11:33:05;34.70;43.10
60027;DHT22;45891;53.006;6.512;2022-09-01T11:35:39;34.40;43.30
60027;DHT22;45891;53.006;6.512;2022-09-01T11:38:06;34.10;43.50
60027;DHT22;45891;53.006;6.512;2022-09-01T11:40:34;34.20;43.90
60027;DHT22;45891;53.006;6.512;2022-09-01T11:43:07;34.60;44.00
60027;DHT22;45891;53.006;6.512;2022-09-01T11:45:43;35.00;43.20
60027;DHT22;45891;53.006;6.512;2022-09-01T11:48:15;35.20;43.00
60027;DHT22;45891;53.006;6.512;2022-09-01T11:50:42;35.20;42.90
60027;DHT22;45891;53.006;6.512;2022-09-01T11:53:12;35.10;42.70
60027;DHT22;45891;53.006;6.512;2022-09-01T11:55:46;35.00;42.80
60027;DHT22;45891;53.006;6.512;2022-09-01T12:01:09;33.70;41.70
60027;DHT22;45891;53.006;6.512;2022-09-01T12:03:36;32.50;42.60
60027;DHT22;45891;53.006;6.512;2022-09-01T12:06:04;32.50;43.70
60027;DHT22;45891;53.006;6.512;2022-09-01T12:08:34;32.70;43.50
60027;DHT22;45891;53.006;6.512;2022-09-01T12:11:04;33.30;43.50
60027;DHT22;45891;53.006;6.512;2022-09-01T12:13:31;33.70;43.50
60027;DHT22;45891;53.006;6.512;2022-09-01T12:16:00;34.00;43.50
60027;DHT22;45891;53.006;6.512;2022-09-01T12:18:32;34.30;43.10
60027;DHT22;45891;53.006;6.512;2022-09-01T12:21:02;34.60;42.80
60027;DHT22;45891;53.006;6.512;2022-09-01T12:23:39;35.00;43.20
60027;DHT22;45891;53.006;6.512;2022-09-01T12:26:09;34.30;42.10
60027;DHT22;45891;53.006;6.512;2022-09-01T12:28:38;34.10;42.40
60027;DHT22;45891;53.006;6.512;2022-09-01T12:31:13;34.30;42.50
60027;DHT22;45891;53.006;6.512;2022-09-01T12:33:42;34.70;41.40
60027;DHT22;45891;53.006;6.512;2022-09-01T12:36:33;34.80;42.10
60027;DHT22;45891;53.006;6.512;2022-09-01T12:39:20;35.10;40.40
60027;DHT22;45891;53.006;6.512;2022-09-01T12:42:21;34.90;40.90
60027;DHT22;45891;53.006;6.512;2022-09-01T12:45:08;35.10;41.40
60027;DHT22;45891;53.006;6.512;2022-09-01T12:50:14;35.50;41.40
60027;DHT22;45891;53.006;6.512;2022-09-01T12:52:56;35.70;41.10
60027;DHT22;45891;53.006;6.512;2022-09-01T12:55:26;35.90;41.00
60027;DHT22;45891;53.006;6.512;2022-09-01T12:58:04;36.10;41.20
60027;DHT22;45891;53.006;6.512;2022-09-01T13:00:32;35.80;40.40
60027;DHT22;45891;53.006;6.512;2022-09-01T13:03:07;34.90;40.80
60027;DHT22;45891;53.006;6.512;2022-09-01T13:05:38;33.90;40.60
60027;DHT22;45891;53.006;6.512;2022-09-01T13:08:11;32.80;41.40
60027;DHT22;45891;53.006;6.512;2022-09-01T13:10:43;32.30;42.90
60027;DHT22;45891;53.006;6.512;2022-09-01T13:13:11;32.60;42.90
60027;DHT22;45891;53.006;6.512;2022-09-01T13:15:41;32.30;42.60
60027;DHT22;45891;53.006;6.512;2022-09-01T13:18:08;32.40;43.10
60027;DHT22;45891;53.006;6.512;2022-09-01T13:20:35;32.80;42.80
60027;DHT22;45891;53.006;6.512;2022-09-01T13:23:01;32.80;43.00
60027;DHT22;45891;53.006;6.512;2022-09-01T13:25:27;32.50;43.00
60027;DHT22;45891;53.006;6.512;2022-09-01T13:27:53;32.10;43.40
60027;DHT22;45891;53.006;6.512;2022-09-01T13:30:23;31.80;43.70
60027;DHT22;45891;53.006;6.512;2022-09-01T13:32:50;31.20;43.80
60027;DHT22;45891;53.006;6.512;2022-09-01T13:35:19;30.80;44.40
60027;DHT22;45891;53.006;6.512;2022-09-01T13:37:47;30.90;45.20
60027;DHT22;45891;53.006;6.512;2022-09-01T13:40:15;31.40;44.90
60027;DHT22;45891;53.006;6.512;2022-09-01T13:42:46;31.60;44.70
60027;DHT22;45891;53.006;6.512;2022-09-01T13:45:14;30.90;44.70
60027;DHT22;45891;53.006;6.512;2022-09-01T13:47:44;30.40;45.10
60027;DHT22;45891;53.006;6.512;2022-09-01T13:50:12;30.00;45.70
60027;DHT22;45891;53.006;6.512;2022-09-01T13:52:41;29.60;45.90
60027;DHT22;45891;53.006;6.512;2022-09-01T13:55:13;29.90;46.50
60027;DHT22;45891;53.006;6.512;2022-09-01T13:57:40;30.80;45.70
60027;DHT22;45891;53.006;6.512;2022-09-01T14:00:09;31.80;45.50
60027;DHT22;45891;53.006;6.512;2022-09-01T14:02:38;31.70;44.90
60027;DHT22;45891;53.006;6.512;2022-09-01T14:05:05;31.50;44.70
60027;DHT22;45891;53.006;6.512;2022-09-01T14:07:31;31.00;44.50
60027;DHT22;45891;53.006;6.512;2022-09-01T14:09:58;30.50;45.40
60027;DHT22;45891;53.006;6.512;2022-09-01T14:12:25;30.10;45.00
60027;DHT22;45891;53.006;6.512;2022-09-01T14:14:51;29.50;45.50
60027;DHT22;45891;53.006;6.512;2022-09-01T14:17:17;29.10;45.30
60027;DHT22;45891;53.006;6.512;2022-09-01T14:19:49;29.10;46.10
60027;DHT22;45891;53.006;6.512;2022-09-01T14:22:15;30.20;46.60
60027;DHT22;45891;53.006;6.512;2022-09-01T14:24:41;29.80;45.80
60027;DHT22;45891;53.006;6.512;2022-09-01T14:27:09;29.50;45.80
60027;DHT22;45891;53.006;6.512;2022-09-01T14:29:36;29.10;46.10
60027;DHT22;45891;53.006;6.512;2022-09-01T14:32:02;28.80;46.20
60027;DHT22;45891;53.006;6.512;2022-09-01T14:34:29;29.50;46.60
60027;DHT22;45891;53.006;6.512;2022-09-01T14:36:55;30.60;45.70
60027;DHT22;45891;53.006;6.512;2022-09-01T14:39:23;31.40;45.40
60027;DHT22;45891;53.006;6.512;2022-09-01T14:41:49;32.10;45.20
60027;DHT22;45891;53.006;6.512;2022-09-01T14:44:15;32.70;44.30
60027;DHT22;45891;53.006;6.512;2022-09-01T14:46:41;32.20;43.90
60027;DHT22;45891;53.006;6.512;2022-09-01T14:49:08;31.70;43.80
60027;DHT22;45891;53.006;6.512;2022-09-01T14:51:35;30.90;43.80
60027;DHT22;45891;53.006;6.512;2022-09-01T14:54:03;30.20;44.50
60027;DHT22;45891;53.006;6.512;2022-09-01T14:56:29;29.80;45.50
60027;DHT22;45891;53.006;6.512;2022-09-01T14:58:55;29.30;45.00
60027;DHT22;45891;53.006;6.512;2022-09-01T15:01:26;29.90;45.30
60027;DHT22;45891;53.006;6.512;2022-09-01T15:03:53;31.00;44.50
60027;DHT22;45891;53.006;6.512;2022-09-01T15:06:20;31.90;44.40
60027;DHT22;45891;53.006;6.512;2022-09-01T15:08:48;32.60;44.20
60027;DHT22;45891;53.006;6.512;2022-09-01T15:11:18;32.40;43.30
60027;DHT22;45891;53.006;6.512;2022-09-01T15:13:45;31.40;42.80
60027;DHT22;45891;53.006;6.512;2022-09-01T15:16:14;30.40;43.20
60027;DHT22;45891;53.006;6.512;2022-09-01T15:18:41;29.60;44.10
60027;DHT22;45891;53.006;6.512;2022-09-01T15:21:16;30.30;44.10
60027;DHT22;45891;53.006;6.512;2022-09-01T15:23:42;31.30;43.50
60027;DHT22;45891;53.006;6.512;2022-09-01T15:26:09;32.10;43.30
60027;DHT22;45891;53.006;6.512;2022-09-01T15:28:35;32.60;42.40
60027;DHT22;45891;53.006;6.512;2022-09-01T15:31:01;32.90;41.90
60027;DHT22;45891;53.006;6.512;2022-09-01T15:33:28;33.30;42.00
60027;DHT22;45891;53.006;6.512;2022-09-01T15:35:54;33.50;41.40
60027;DHT22;45891;53.006;6.512;2022-09-01T15:38:20;33.80;41.60
60027;DHT22;45891;53.006;6.512;2022-09-01T15:40:46;34.10;41.50
60027;DHT22;45891;53.006;6.512;2022-09-01T15:43:13;34.10;40.80
60027;DHT22;45891;53.006;6.512;2022-09-01T15:45:39;32.80;40.70
60027;DHT22;45891;53.006;6.512;2022-09-01T15:48:06;32.00;41.50
60027;DHT22;45891;53.006;6.512;2022-09-01T15:50:32;32.30;41.50
60027;DHT22;45891;53.006;6.512;2022-09-01T15:53:01;32.50;41.30
60027;DHT22;45891;53.006;6.512;2022-09-01T15:55:46;32.50;41.30
60027;DHT22;45891;53.006;6.512;2022-09-01T15:58:15;32.10;41.40
60027;DHT22;45891;53.006;6.512;2022-09-01T16:00:42;30.80;41.40
60027;DHT22;45891;53.006;6.512;2022-09-01T16:03:09;31.70;41.60
60027;DHT22;45891;53.006;6.512;2022-09-01T16:05:37;32.20;41.80
60027;DHT22;45891;53.006;6.512;2022-09-01T16:08:05;32.40;41.30
60027;DHT22;45891;53.006;6.512;2022-09-01T16:10:35;32.70;40.90
60027;DHT22;45891;53.006;6.512;2022-09-01T16:13:03;32.10;41.60
60027;DHT22;45891;53.006;6.512;2022-09-01T16:15:29;32.50;41.10
60027;DHT22;45891;53.006;6.512;2022-09-01T16:18:08;32.50;40.90
60027;DHT22;45891;53.006;6.512;2022-09-01T16:20:47;32.70;41.10
60027;DHT22;45891;53.006;6.512;2022-09-01T16:23:17;32.70;40.50
60027;DHT22;45891;53.006;6.512;2022-09-01T16:25:44;32.70;40.90
60027;DHT22;45891;53.006;6.512;2022-09-01T16:28:33;32.60;40.80
60027;DHT22;45891;53.006;6.512;2022-09-01T16:31:16;32.40;40.20
60027;DHT22;45891;53.006;6.512;2022-09-01T16:33:49;32.10;40.30
60027;DHT22;45891;53.006;6.512;2022-09-01T16:39:50;31.60;41.00
60027;DHT22;45891;53.006;6.512;2022-09-01T16:45:23;30.90;40.90
60027;DHT22;45891;53.006;6.512;2022-09-01T16:50:48;30.20;41.00
60027;DHT22;45891;53.006;6.512;2022-09-01T16:56:13;29.60;41.60